createdAt,value
2016-05-01T00:00:50.559Z,0
2016-05-01T00:01:50.578Z,0
2016-05-01T00:02:50.424Z,0
2016-05-01T00:03:50.427Z,0
2016-05-01T00:04:50.819Z,0
2016-05-01T00:05:50.604Z,0
2016-05-01T00:06:50.451Z,0
2016-05-01T00:07:50.608Z,0
2016-05-01T00:08:50.612Z,0
2016-05-01T00:09:50.458Z,0
2016-05-01T00:10:50.649Z,0
2016-05-01T00:11:50.480Z,0
2016-05-01T00:12:50.482Z,0
2016-05-01T00:13:50.641Z,0
2016-05-01T00:14:50.660Z,0
2016-05-01T00:15:50.334Z,0
2016-05-01T00:16:50.508Z,0
2016-05-01T00:17:50.668Z,0
2016-05-01T00:18:50.685Z,0
2016-05-01T00:19:51.329Z,0
2016-05-01T00:20:50.691Z,0
2016-05-01T00:21:50.693Z,0
2016-05-01T00:22:51.071Z,0
2016-05-01T00:23:50.714Z,0
2016-05-01T00:24:50.561Z,0
2016-05-01T00:25:50.720Z,0
2016-05-01T00:26:50.723Z,0
2016-05-01T00:27:50.725Z,0
2016-05-01T00:28:50.587Z,0
2016-05-01T00:29:50.590Z,0
2016-05-01T00:30:50.593Z,0
2016-05-01T00:31:50.596Z,0
2016-05-01T00:32:50.755Z,0
2016-05-01T00:33:50.758Z,0
2016-05-01T00:34:50.807Z,0
2016-05-01T00:35:50.622Z,0
2016-05-01T00:36:50.625Z,0
2016-05-01T00:37:50.471Z,0
2016-05-01T00:38:50.802Z,0
2016-05-01T00:39:50.820Z,0
2016-05-01T00:40:50.652Z,0
2016-05-01T00:41:50.810Z,0
2016-05-01T00:42:50.657Z,0
2016-05-01T00:43:50.503Z,0
2016-05-01T00:44:50.818Z,0
2016-05-01T00:45:50.852Z,0
2016-05-01T00:46:50.526Z,0
2016-05-01T00:47:50.842Z,0
2016-05-01T00:48:50.548Z,0
2016-05-01T00:49:51.565Z,0
2016-05-01T00:50:50.693Z,0
2016-05-01T00:51:50.868Z,0
2016-05-01T00:52:50.574Z,0
2016-05-01T00:53:50.733Z,0
2016-05-01T00:54:50.735Z,0
2016-05-01T00:55:50.895Z,0
2016-05-01T00:56:50.898Z,0
2016-05-01T00:57:50.901Z,0
2016-05-01T00:58:50.746Z,0
2016-05-01T00:59:50.937Z,0
2016-05-01T01:00:50.767Z,0
2016-05-01T01:01:50.926Z,0
2016-05-01T01:02:50.929Z,0
2016-05-01T01:03:50.947Z,0
2016-05-01T01:04:50.966Z,0
2016-05-01T01:05:50.936Z,0
2016-05-01T01:06:50.971Z,0
2016-05-01T01:07:50.833Z,0
2016-05-01T01:08:50.977Z,0
2016-05-01T01:09:50.822Z,0
2016-05-01T01:10:50.841Z,0
2016-05-01T01:11:50.844Z,0
2016-05-01T01:12:51.002Z,0
2016-05-01T01:13:51.002Z,0
2016-05-01T01:14:51.020Z,0
2016-05-01T01:15:51.007Z,0
2016-05-01T01:16:51.009Z,0
2016-05-01T01:17:50.715Z,0
2016-05-01T01:18:50.875Z,0
2016-05-01T01:19:50.737Z,0
2016-05-01T01:20:51.505Z,0
2016-05-01T01:21:50.914Z,0
2016-05-01T01:22:50.917Z,0
2016-05-01T01:23:51.075Z,0
2016-05-01T01:24:51.109Z,0
2016-05-01T01:25:51.080Z,0
2016-05-01T01:26:51.099Z,0
2016-05-01T01:27:51.086Z,0
2016-05-01T01:28:51.104Z,0
2016-05-01T01:29:51.092Z,0
2016-05-01T01:30:51.110Z,0
2016-05-01T01:31:50.971Z,0
2016-05-01T01:32:51.130Z,0
2016-05-01T01:33:51.133Z,0
2016-05-01T01:34:51.136Z,0
2016-05-01T01:35:51.061Z,0
2016-05-01T01:36:51.142Z,0
2016-05-01T01:37:50.987Z,0
2016-05-01T01:38:51.163Z,0
2016-05-01T01:39:51.165Z,0
2016-05-01T01:40:51.168Z,0
2016-05-01T01:41:50.859Z,0
2016-05-01T01:42:50.876Z,0
2016-05-01T01:43:51.192Z,0
2016-05-01T01:44:51.194Z,0
2016-05-01T01:45:51.197Z,0
2016-05-01T01:46:51.043Z,0
2016-05-01T01:47:51.062Z,0
2016-05-01T01:48:51.205Z,0
2016-05-01T01:49:50.801Z,0
2016-05-01T01:50:51.054Z,0
2016-05-01T01:51:51.072Z,0
2016-05-01T01:52:51.091Z,0
2016-05-01T01:53:51.093Z,0
2016-05-01T01:54:51.097Z,0
2016-05-01T01:55:51.115Z,0
2016-05-01T01:56:51.258Z,0
2016-05-01T01:57:51.276Z,0
2016-05-01T01:58:51.279Z,0
2016-05-01T01:59:51.282Z,0
2016-05-01T02:00:51.285Z,0
2016-05-01T02:01:51.318Z,0
2016-05-01T02:02:51.305Z,0
2016-05-01T02:03:51.308Z,0
2016-05-01T02:04:52.388Z,0
2016-05-01T02:05:51.157Z,0
2016-05-01T02:06:51.175Z,0
2016-05-01T02:07:51.318Z,0
2016-05-01T02:08:51.352Z,0
2016-05-01T02:09:51.324Z,0
2016-05-01T02:10:51.186Z,0
2016-05-01T02:11:51.361Z,0
2016-05-01T02:12:51.362Z,0
2016-05-01T02:13:51.365Z,0
2016-05-01T02:14:51.213Z,0
2016-05-01T02:15:51.231Z,0
2016-05-01T02:16:51.218Z,0
2016-05-01T02:17:51.393Z,0
2016-05-01T02:18:51.411Z,0
2016-05-01T02:19:51.101Z,0
2016-05-01T02:20:51.995Z,0
2016-05-01T02:21:51.403Z,0
2016-05-01T02:22:51.406Z,0
2016-05-01T02:23:51.425Z,0
2016-05-01T02:24:51.286Z,0
2016-05-01T02:25:51.445Z,0
2016-05-01T02:26:51.447Z,0
2016-05-01T02:27:51.294Z,0
2016-05-01T02:28:51.453Z,0
2016-05-01T02:29:51.299Z,0
2016-05-01T02:30:51.474Z,0
2016-05-01T02:31:51.336Z,0
2016-05-01T02:32:51.167Z,0
2016-05-01T02:33:51.482Z,0
2016-05-01T02:34:51.188Z,0
2016-05-01T02:35:51.504Z,0
2016-05-01T02:36:51.490Z,0
2016-05-01T02:37:51.352Z,0
2016-05-01T02:38:51.527Z,0
2016-05-01T02:39:51.515Z,0
2016-05-01T02:40:51.517Z,0
2016-05-01T02:41:51.520Z,0
2016-05-01T02:42:51.554Z,0
2016-05-01T02:43:51.384Z,0
2016-05-01T02:44:51.543Z,0
2016-05-01T02:45:51.405Z,0
2016-05-01T02:46:51.408Z,0
2016-05-01T02:47:51.411Z,0
2016-05-01T02:48:51.444Z,0
2016-05-01T02:49:51.650Z,0
2016-05-01T02:50:51.778Z,0
2016-05-01T02:51:51.593Z,0
2016-05-01T02:52:51.596Z,0
2016-05-01T02:53:51.458Z,0
2016-05-01T02:54:51.461Z,0
2016-05-01T02:55:51.463Z,0
2016-05-01T02:56:51.467Z,0
2016-05-01T02:57:51.641Z,0
2016-05-01T02:58:51.472Z,0
2016-05-01T02:59:51.646Z,0
2016-05-01T03:00:51.367Z,0
2016-05-01T03:01:51.652Z,0
2016-05-01T03:02:51.654Z,0
2016-05-01T03:03:51.657Z,0
2016-05-01T03:04:51.502Z,0
2016-05-01T03:05:51.693Z,0
2016-05-01T03:06:51.524Z,0
2016-05-01T03:07:51.682Z,0
2016-05-01T03:08:51.529Z,0
2016-05-01T03:09:51.548Z,0
2016-05-01T03:10:51.535Z,0
2016-05-01T03:11:51.710Z,0
2016-05-01T03:12:51.713Z,0
2016-05-01T03:13:51.417Z,0
2016-05-01T03:14:51.577Z,0
2016-05-01T03:15:51.579Z,0
2016-05-01T03:16:51.739Z,0
2016-05-01T03:17:51.788Z,0
2016-05-01T03:18:51.603Z,0
2016-05-01T03:19:51.668Z,0
2016-05-01T03:20:51.468Z,0
2016-05-01T03:21:51.783Z,0
2016-05-01T03:22:51.770Z,0
2016-05-01T03:23:51.679Z,0
2016-05-01T03:24:51.791Z,0
2016-05-01T03:25:51.794Z,0
2016-05-01T03:26:51.641Z,0
2016-05-01T03:27:51.800Z,0
2016-05-01T03:28:51.817Z,0
2016-05-01T03:29:51.680Z,0
2016-05-01T03:30:51.714Z,0
2016-05-01T03:31:53.795Z,0
2016-05-01T03:32:51.688Z,0
2016-05-01T03:33:51.738Z,0
2016-05-01T03:34:51.850Z,0
2016-05-01T03:35:51.696Z,0
2016-05-01T03:36:51.699Z,0
2016-05-01T03:37:51.874Z,0
2016-05-01T03:38:51.891Z,0
2016-05-01T03:39:51.863Z,0
2016-05-01T03:40:51.882Z,0
2016-05-01T03:41:51.727Z,0
2016-05-01T03:42:51.902Z,0
2016-05-01T03:43:51.890Z,0
2016-05-01T03:44:51.907Z,0
2016-05-01T03:45:51.910Z,0
2016-05-01T03:46:51.773Z,0
2016-05-01T03:47:51.775Z,0
2016-05-01T03:48:51.934Z,0
2016-05-01T03:49:51.936Z,0
2016-05-01T03:50:52.564Z,0
2016-05-01T03:51:51.786Z,0
2016-05-01T03:52:51.961Z,0
2016-05-01T03:53:51.823Z,0
2016-05-01T03:54:51.967Z,0
2016-05-01T03:55:51.984Z,0
2016-05-01T03:56:51.972Z,0
2016-05-01T03:57:51.990Z,0
2016-05-01T03:58:51.836Z,0
2016-05-01T03:59:51.823Z,0
2016-05-01T04:00:51.982Z,0
2016-05-01T04:01:52.000Z,0
2016-05-01T04:02:52.003Z,0
2016-05-01T04:03:51.708Z,0
2016-05-01T04:04:52.368Z,0
2016-05-01T04:05:51.729Z,0
2016-05-01T04:06:52.029Z,0
2016-05-01T04:07:51.891Z,0
2016-05-01T04:08:51.910Z,0
2016-05-01T04:09:52.052Z,0
2016-05-01T04:10:52.055Z,0
2016-05-01T04:11:52.074Z,0
2016-05-01T04:12:51.921Z,0
2016-05-01T04:13:52.064Z,0
2016-05-01T04:14:52.066Z,0
2016-05-01T04:15:52.085Z,0
2016-05-01T04:16:51.775Z,0
2016-05-01T04:17:51.949Z,0
2016-05-01T04:18:51.952Z,0
2016-05-01T04:19:52.111Z,0
2016-05-01T04:20:51.973Z,0
2016-05-01T04:21:52.117Z,0
2016-05-01T04:22:52.150Z,0
2016-05-01T04:23:52.122Z,0
2016-05-01T04:24:51.827Z,0
2016-05-01T04:25:52.158Z,0
2016-05-01T04:26:52.145Z,0
2016-05-01T04:27:52.008Z,0
2016-05-01T04:28:52.167Z,0
2016-05-01T04:29:52.154Z,0
2016-05-01T04:30:52.188Z,0
2016-05-01T04:31:52.191Z,0
2016-05-01T04:32:52.194Z,0
2016-05-01T04:33:52.196Z,0
2016-05-01T04:34:52.199Z,0
2016-05-01T04:35:52.217Z,0
2016-05-01T04:36:52.219Z,0
2016-05-01T04:37:52.222Z,0
2016-05-01T04:38:52.224Z,0
2016-05-01T04:39:52.071Z,0
2016-05-01T04:40:52.246Z,0
2016-05-01T04:41:52.232Z,0
2016-05-01T04:42:52.235Z,0
2016-05-01T04:43:52.098Z,0
2016-05-01T04:44:52.240Z,0
2016-05-01T04:45:52.259Z,0
2016-05-01T04:46:52.262Z,0
2016-05-01T04:47:52.280Z,0
2016-05-01T04:48:52.299Z,0
2016-05-01T04:49:52.193Z,0
2016-05-01T04:50:52.147Z,0
2016-05-01T04:51:52.010Z,0
2016-05-01T04:52:52.309Z,0
2016-05-01T04:53:52.312Z,0
2016-05-01T04:54:52.174Z,0
2016-05-01T04:55:52.176Z,5
2016-05-01T04:56:52.164Z,5
2016-05-01T04:57:52.181Z,5
2016-05-01T04:58:52.169Z,5
2016-05-01T04:59:52.344Z,5
2016-05-01T05:00:52.361Z,5
2016-05-01T05:01:52.364Z,5
2016-05-01T05:02:52.055Z,5
2016-05-01T05:03:52.214Z,5
2016-05-01T05:04:52.233Z,5
2016-05-01T05:05:52.078Z,5
2016-05-01T05:06:52.394Z,5
2016-05-01T05:07:52.381Z,5
2016-05-01T05:08:52.416Z,5
2016-05-01T05:09:52.261Z,10
2016-05-01T05:10:52.249Z,10
2016-05-01T05:11:52.407Z,10
2016-05-01T05:12:52.441Z,10
2016-05-01T05:13:52.429Z,10
2016-05-01T05:14:52.274Z,10
2016-05-01T05:15:52.277Z,10
2016-05-01T05:16:52.296Z,10
2016-05-01T05:17:52.298Z,10
2016-05-01T05:18:52.457Z,10
2016-05-01T05:19:52.475Z,10
2016-05-01T05:20:52.775Z,10
2016-05-01T05:21:52.325Z,10
2016-05-01T05:22:52.484Z,10
2016-05-01T05:23:52.331Z,10
2016-05-01T05:24:52.505Z,10
2016-05-01T05:25:52.350Z,10
2016-05-01T05:26:52.510Z,10
2016-05-01T05:27:52.357Z,10
2016-05-01T05:28:52.515Z,10
2016-05-01T05:29:52.518Z,10
2016-05-01T05:30:52.380Z,10
2016-05-01T05:31:52.539Z,10
2016-05-01T05:32:52.558Z,10
2016-05-01T05:33:52.075Z,10
2016-05-01T05:34:52.547Z,10
2016-05-01T05:35:53.034Z,10
2016-05-01T05:36:52.396Z,10
2016-05-01T05:37:52.415Z,10
2016-05-01T05:38:52.589Z,10
2016-05-01T05:39:52.279Z,10
2016-05-01T05:40:52.438Z,10
2016-05-01T05:41:52.597Z,15
2016-05-01T05:42:52.599Z,15
2016-05-01T05:43:52.619Z,15
2016-05-01T05:44:52.605Z,15
2016-05-01T05:45:52.468Z,15
2016-05-01T05:46:52.643Z,15
2016-05-01T05:47:52.629Z,15
2016-05-01T05:48:52.648Z,15
2016-05-01T05:49:52.635Z,20
2016-05-01T05:50:52.685Z,20
2016-05-01T05:51:52.656Z,20
2016-05-01T05:52:52.659Z,20
2016-05-01T05:53:52.364Z,20
2016-05-01T05:54:52.664Z,20
2016-05-01T05:55:52.682Z,20
2016-05-01T05:56:52.528Z,20
2016-05-01T05:57:52.531Z,25
2016-05-01T05:58:52.720Z,25
2016-05-01T05:59:52.708Z,25
2016-05-01T06:00:52.398Z,25
2016-05-01T06:01:52.557Z,20
2016-05-01T06:02:52.700Z,20
2016-05-01T06:03:52.719Z,20
2016-05-01T06:04:52.737Z,25
2016-05-01T06:05:52.600Z,25
2016-05-01T06:06:52.742Z,30
2016-05-01T06:07:52.760Z,30
2016-05-01T06:08:52.764Z,35
2016-05-01T06:09:52.633Z,40
2016-05-01T06:10:52.623Z,45
2016-05-01T06:11:52.791Z,50
2016-05-01T06:12:52.638Z,55
2016-05-01T06:13:52.794Z,50
2016-05-01T06:14:52.781Z,50
2016-05-01T06:15:52.783Z,45
2016-05-01T06:16:52.645Z,40
2016-05-01T06:17:52.663Z,35
2016-05-01T06:18:52.666Z,35
2016-05-01T06:19:52.810Z,35
2016-05-01T06:20:53.672Z,35
2016-05-01T06:21:52.674Z,35
2016-05-01T06:22:52.833Z,35
2016-05-01T06:23:52.821Z,35
2016-05-01T06:24:52.683Z,35
2016-05-01T06:25:52.701Z,30
2016-05-01T06:26:52.860Z,30
2016-05-01T06:27:52.846Z,30
2016-05-01T06:28:52.709Z,30
2016-05-01T06:29:52.571Z,30
2016-05-01T06:30:52.886Z,30
2016-05-01T06:31:52.890Z,30
2016-05-01T06:32:52.892Z,30
2016-05-01T06:33:52.753Z,35
2016-05-01T06:34:52.741Z,30
2016-05-01T06:35:52.759Z,30
2016-05-01T06:36:52.762Z,30
2016-05-01T06:37:52.781Z,30
2016-05-01T06:38:52.767Z,30
2016-05-01T06:39:52.926Z,30
2016-05-01T06:40:52.945Z,30
2016-05-01T06:41:52.807Z,30
2016-05-01T06:42:52.794Z,30
2016-05-01T06:43:52.968Z,30
2016-05-01T06:44:52.814Z,30
2016-05-01T06:45:52.958Z,30
2016-05-01T06:46:52.976Z,30
2016-05-01T06:47:52.822Z,30
2016-05-01T06:48:52.997Z,30
2016-05-01T06:49:53.000Z,30
2016-05-01T06:50:53.047Z,30
2016-05-01T06:51:52.919Z,30
2016-05-01T06:52:53.137Z,30
2016-05-01T06:53:53.182Z,35
2016-05-01T06:54:53.211Z,35
2016-05-01T06:55:53.098Z,35
2016-05-01T06:56:52.976Z,35
2016-05-01T06:57:53.150Z,40
2016-05-01T06:58:53.152Z,40
2016-05-01T06:59:53.343Z,45
2016-05-01T07:00:53.369Z,50
2016-05-01T07:01:53.222Z,50
2016-05-01T07:02:53.369Z,55
2016-05-01T07:03:53.253Z,55
2016-05-01T07:04:53.418Z,55
2016-05-01T07:05:55.064Z,60
2016-05-01T07:06:53.115Z,60
2016-05-01T07:07:53.276Z,60
2016-05-01T07:08:53.109Z,60
2016-05-01T07:09:53.442Z,60
2016-05-01T07:10:53.493Z,55
2016-05-01T07:11:53.449Z,55
2016-05-01T07:12:53.454Z,60
2016-05-01T07:13:53.456Z,60
2016-05-01T07:14:53.319Z,60
2016-05-01T07:15:53.494Z,60
2016-05-01T07:16:53.201Z,60
2016-05-01T07:17:53.500Z,60
2016-05-01T07:18:53.488Z,65
2016-05-01T07:19:53.506Z,70
2016-05-01T07:20:54.979Z,75
2016-05-01T07:21:53.215Z,80
2016-05-01T07:22:53.530Z,80
2016-05-01T07:23:53.237Z,80
2016-05-01T07:24:53.551Z,75
2016-05-01T07:25:53.398Z,70
2016-05-01T07:26:53.556Z,65
2016-05-01T07:27:53.559Z,60
2016-05-01T07:28:53.406Z,60
2016-05-01T07:29:53.409Z,60
2016-05-01T07:30:53.442Z,60
2016-05-01T07:31:53.586Z,65
2016-05-01T07:32:53.589Z,70
2016-05-01T07:33:53.435Z,70
2016-05-01T07:34:53.453Z,75
2016-05-01T07:35:53.550Z,75
2016-05-01T07:36:53.599Z,75
2016-05-01T07:37:53.478Z,80
2016-05-01T07:38:53.636Z,85
2016-05-01T07:39:53.638Z,90
2016-05-01T07:40:53.641Z,100
2016-05-01T07:41:53.644Z,100
2016-05-01T07:42:53.663Z,105
2016-05-01T07:43:53.508Z,100
2016-05-01T07:44:53.668Z,95
2016-05-01T07:45:53.671Z,90
2016-05-01T07:46:53.377Z,85
2016-05-01T07:47:53.519Z,80
2016-05-01T07:48:53.679Z,80
2016-05-01T07:49:53.696Z,80
2016-05-01T07:50:53.902Z,80
2016-05-01T07:51:53.702Z,80
2016-05-01T07:52:53.564Z,80
2016-05-01T07:53:53.723Z,85
2016-05-01T07:54:53.726Z,90
2016-05-01T07:55:53.729Z,90
2016-05-01T07:56:53.746Z,95
2016-05-01T07:57:53.781Z,100
2016-05-01T07:58:53.752Z,105
2016-05-01T07:59:53.615Z,110
2016-05-01T08:00:53.757Z,115
2016-05-01T08:01:53.776Z,120
2016-05-01T08:02:53.466Z,125
2016-05-01T08:03:53.640Z,130
2016-05-01T08:04:53.642Z,130
2016-05-01T08:05:53.834Z,135
2016-05-01T08:06:53.648Z,140
2016-05-01T08:07:53.650Z,140
2016-05-01T08:08:53.498Z,140
2016-05-01T08:09:53.517Z,135
2016-05-01T08:10:53.831Z,130
2016-05-01T08:11:53.678Z,130
2016-05-01T08:12:53.680Z,120
2016-05-01T08:13:53.683Z,120
2016-05-01T08:14:53.857Z,120
2016-05-01T08:15:53.860Z,120
2016-05-01T08:16:53.722Z,125
2016-05-01T08:17:53.882Z,125
2016-05-01T08:18:53.884Z,135
2016-05-01T08:19:53.574Z,135
2016-05-01T08:20:53.952Z,135
2016-05-01T08:21:53.736Z,140
2016-05-01T08:22:53.911Z,135
2016-05-01T08:23:53.757Z,125
2016-05-01T08:24:53.915Z,125
2016-05-01T08:25:53.934Z,120
2016-05-01T08:26:53.937Z,120
2016-05-01T08:27:53.939Z,120
2016-05-01T08:28:53.787Z,120
2016-05-01T08:29:53.946Z,125
2016-05-01T08:30:53.948Z,130
2016-05-01T08:31:53.809Z,130
2016-05-01T08:32:53.969Z,135
2016-05-01T08:33:53.831Z,135
2016-05-01T08:34:53.818Z,140
2016-05-01T08:35:54.149Z,135
2016-05-01T08:36:53.995Z,140
2016-05-01T08:37:54.014Z,135
2016-05-01T08:38:53.860Z,135
2016-05-01T08:39:54.019Z,135
2016-05-01T08:40:54.036Z,140
2016-05-01T08:41:54.009Z,140
2016-05-01T08:42:53.870Z,140
2016-05-01T08:43:54.029Z,150
2016-05-01T08:44:54.047Z,140
2016-05-01T08:45:54.066Z,145
2016-05-01T08:46:54.069Z,140
2016-05-01T08:47:54.072Z,140
2016-05-01T08:48:53.918Z,140
2016-05-01T08:49:54.077Z,140
2016-05-01T08:50:54.391Z,140
2016-05-01T08:51:54.098Z,135
2016-05-01T08:52:54.085Z,125
2016-05-01T08:53:54.103Z,125
2016-05-01T08:54:54.091Z,120
2016-05-01T08:55:53.968Z,120
2016-05-01T08:56:54.111Z,120
2016-05-01T08:57:54.130Z,120
2016-05-01T08:58:54.163Z,125
2016-05-01T08:59:53.995Z,120
2016-05-01T09:00:53.982Z,120
2016-05-01T09:01:54.156Z,120
2016-05-01T09:02:54.158Z,120
2016-05-01T09:03:54.162Z,110
2016-05-01T09:04:54.164Z,105
2016-05-01T09:05:54.182Z,105
2016-05-01T09:06:54.185Z,100
2016-05-01T09:07:54.203Z,100
2016-05-01T09:08:54.050Z,100
2016-05-01T09:09:54.192Z,100
2016-05-01T09:10:54.211Z,105
2016-05-01T09:11:54.198Z,105
2016-05-01T09:12:54.217Z,105
2016-05-01T09:13:54.078Z,110
2016-05-01T09:14:54.081Z,110
2016-05-01T09:15:54.241Z,110
2016-05-01T09:16:54.103Z,110
2016-05-01T09:17:53.949Z,110
2016-05-01T09:18:54.264Z,110
2016-05-01T09:19:54.111Z,115
2016-05-01T09:20:54.145Z,115
2016-05-01T09:21:54.288Z,115
2016-05-01T09:22:54.310Z,120
2016-05-01T09:23:54.298Z,120
2016-05-01T09:24:54.160Z,120
2016-05-01T09:25:54.303Z,120
2016-05-01T09:26:54.166Z,120
2016-05-01T09:27:54.309Z,120
2016-05-01T09:28:54.327Z,120
2016-05-01T09:29:54.346Z,120
2016-05-01T09:30:54.379Z,120
2016-05-01T09:31:54.194Z,120
2016-05-01T09:32:54.354Z,120
2016-05-01T09:33:54.356Z,120
2016-05-01T09:34:54.359Z,120
2016-05-01T09:35:54.300Z,120
2016-05-01T09:36:54.209Z,120
2016-05-01T09:37:54.226Z,120
2016-05-01T09:38:54.386Z,120
2016-05-01T09:39:54.403Z,120
2016-05-01T09:40:54.234Z,120
2016-05-01T09:41:54.393Z,125
2016-05-01T09:42:54.412Z,125
2016-05-01T09:43:54.431Z,130
2016-05-01T09:44:54.433Z,120
2016-05-01T09:45:54.436Z,120
2016-05-01T09:46:54.438Z,120
2016-05-01T09:47:54.457Z,120
2016-05-01T09:48:54.444Z,115
2016-05-01T09:49:54.446Z,120
2016-05-01T09:50:54.574Z,115
2016-05-01T09:51:54.483Z,120
2016-05-01T09:52:54.330Z,120
2016-05-01T09:53:54.488Z,125
2016-05-01T09:54:54.475Z,120
2016-05-01T09:55:54.494Z,125
2016-05-01T09:56:54.340Z,130
2016-05-01T09:57:54.498Z,125
2016-05-01T09:58:54.502Z,120
2016-05-01T09:59:54.521Z,130
2016-05-01T10:00:54.523Z,130
2016-05-01T10:01:54.526Z,125
2016-05-01T10:02:54.543Z,115
2016-05-01T10:03:54.390Z,120
2016-05-01T10:04:54.549Z,115
2016-05-01T10:05:54.567Z,120
2016-05-01T10:06:54.571Z,115
2016-05-01T10:07:54.557Z,115
2016-05-01T10:08:54.434Z,115
2016-05-01T10:09:54.594Z,110
2016-05-01T10:10:54.425Z,115
2016-05-01T10:11:54.303Z,110
2016-05-01T10:12:54.602Z,110
2016-05-01T10:13:54.619Z,110
2016-05-01T10:14:54.483Z,110
2016-05-01T10:15:54.642Z,110
2016-05-01T10:16:54.316Z,110
2016-05-01T10:17:54.631Z,115
2016-05-01T10:18:54.649Z,110
2016-05-01T10:19:54.652Z,110
2016-05-01T10:20:54.639Z,115
2016-05-01T10:21:54.658Z,115
2016-05-01T10:22:54.661Z,115
2016-05-01T10:23:54.522Z,115
2016-05-01T10:24:54.682Z,115
2016-05-01T10:25:54.527Z,115
2016-05-01T10:26:54.718Z,115
2016-05-01T10:27:54.548Z,115
2016-05-01T10:28:54.707Z,115
2016-05-01T10:29:54.554Z,110
2016-05-01T10:30:54.729Z,110
2016-05-01T10:31:54.716Z,110
2016-05-01T10:32:54.749Z,115
2016-05-01T10:33:54.737Z,110
2016-05-01T10:34:54.754Z,110
2016-05-01T10:35:54.757Z,105
2016-05-01T10:36:54.603Z,105
2016-05-01T10:37:54.763Z,105
2016-05-01T10:38:54.782Z,105
2016-05-01T10:39:54.768Z,105
2016-05-01T10:40:54.661Z,105
2016-05-01T10:41:54.789Z,100
2016-05-01T10:42:54.791Z,100
2016-05-01T10:43:54.623Z,100
2016-05-01T10:44:54.798Z,100
2016-05-01T10:45:54.800Z,100
2016-05-01T10:46:54.647Z,100
2016-05-01T10:47:54.789Z,100
2016-05-01T10:48:54.808Z,100
2016-05-01T10:49:54.810Z,100
2016-05-01T10:50:54.547Z,100
2016-05-01T10:51:54.833Z,100
2016-05-01T10:52:54.663Z,100
2016-05-01T10:53:54.666Z,100
2016-05-01T10:54:54.683Z,100
2016-05-01T10:55:54.858Z,100
2016-05-01T10:56:54.860Z,100
2016-05-01T10:57:54.551Z,100
2016-05-01T10:58:54.726Z,100
2016-05-01T10:59:54.915Z,100
2016-05-01T11:00:54.731Z,100
2016-05-01T11:01:54.734Z,95
2016-05-01T11:02:54.893Z,95
2016-05-01T11:03:54.879Z,95
2016-05-01T11:04:54.757Z,95
2016-05-01T11:05:55.667Z,95
2016-05-01T11:06:54.903Z,95
2016-05-01T11:07:54.765Z,95
2016-05-01T11:08:54.940Z,95
2016-05-01T11:09:54.927Z,95
2016-05-01T11:10:54.930Z,95
2016-05-01T11:11:54.948Z,95
2016-05-01T11:12:54.936Z,95
2016-05-01T11:13:54.953Z,95
2016-05-01T11:14:54.816Z,95
2016-05-01T11:15:54.803Z,90
2016-05-01T11:16:54.977Z,90
2016-05-01T11:17:54.980Z,90
2016-05-01T11:18:54.967Z,90
2016-05-01T11:19:54.970Z,90
2016-05-01T11:20:55.738Z,90
2016-05-01T11:21:54.835Z,90
2016-05-01T11:22:54.994Z,90
2016-05-01T11:23:54.980Z,90
2016-05-01T11:24:55.014Z,90
2016-05-01T11:25:54.861Z,90
2016-05-01T11:26:55.004Z,90
2016-05-01T11:27:54.851Z,90
2016-05-01T11:28:54.869Z,90
2016-05-01T11:29:54.872Z,90
2016-05-01T11:30:54.874Z,90
2016-05-01T11:31:55.049Z,85
2016-05-01T11:32:55.035Z,85
2016-05-01T11:33:55.038Z,85
2016-05-01T11:34:55.041Z,85
2016-05-01T11:35:54.904Z,85
2016-05-01T11:36:55.062Z,85
2016-05-01T11:37:54.924Z,85
2016-05-01T11:38:55.068Z,85
2016-05-01T11:39:54.914Z,85
2016-05-01T11:40:54.932Z,85
2016-05-01T11:41:54.935Z,85
2016-05-01T11:42:55.094Z,85
2016-05-01T11:43:54.925Z,85
2016-05-01T11:44:55.099Z,85
2016-05-01T11:45:54.945Z,85
2016-05-01T11:46:54.948Z,85
2016-05-01T11:47:55.108Z,85
2016-05-01T11:48:54.953Z,85
2016-05-01T11:49:54.973Z,80
2016-05-01T11:50:54.772Z,80
2016-05-01T11:51:55.118Z,80
2016-05-01T11:52:54.981Z,80
2016-05-01T11:53:55.124Z,80
2016-05-01T11:54:55.142Z,80
2016-05-01T11:55:55.144Z,80
2016-05-01T11:56:55.147Z,80
2016-05-01T11:57:55.166Z,80
2016-05-01T11:58:54.887Z,80
2016-05-01T11:59:55.030Z,75
2016-05-01T12:00:55.174Z,75
2016-05-01T12:01:54.895Z,75
2016-05-01T12:02:55.179Z,75
2016-05-01T12:03:55.182Z,75
2016-05-01T12:04:55.184Z,75
2016-05-01T12:05:55.984Z,75
2016-05-01T12:06:55.048Z,75
2016-05-01T12:07:55.240Z,75
2016-05-01T12:08:55.071Z,75
2016-05-01T12:09:55.073Z,75
2016-05-01T12:10:55.232Z,75
2016-05-01T12:11:55.250Z,75
2016-05-01T12:12:55.097Z,75
2016-05-01T12:13:55.240Z,70
2016-05-01T12:14:55.273Z,70
2016-05-01T12:15:55.245Z,70
2016-05-01T12:16:55.247Z,70
2016-05-01T12:17:55.281Z,70
2016-05-01T12:18:54.956Z,70
2016-05-01T12:19:55.272Z,70
2016-05-01T12:20:55.822Z,70
2016-05-01T12:21:55.293Z,70
2016-05-01T12:22:55.295Z,70
2016-05-01T12:23:55.297Z,70
2016-05-01T12:24:55.300Z,70
2016-05-01T12:25:55.319Z,70
2016-05-01T12:26:55.166Z,70
2016-05-01T12:27:55.324Z,65
2016-05-01T12:28:55.358Z,65
2016-05-01T12:29:55.032Z,65
2016-05-01T12:30:55.349Z,65
2016-05-01T12:31:55.351Z,65
2016-05-01T12:32:55.213Z,65
2016-05-01T12:33:55.372Z,65
2016-05-01T12:34:55.390Z,65
2016-05-01T12:35:55.252Z,65
2016-05-01T12:36:55.223Z,65
2016-05-01T12:37:55.398Z,65
2016-05-01T12:38:55.401Z,65
2016-05-01T12:39:55.279Z,65
2016-05-01T12:40:55.406Z,65
2016-05-01T12:41:55.409Z,65
2016-05-01T12:42:55.412Z,65
2016-05-01T12:43:55.430Z,65
2016-05-01T12:44:55.261Z,65
2016-05-01T12:45:55.278Z,60
2016-05-01T12:46:55.438Z,60
2016-05-01T12:47:55.426Z,60
2016-05-01T12:48:55.444Z,60
2016-05-01T12:49:55.322Z,60
2016-05-01T12:50:55.792Z,60
2016-05-01T12:51:55.295Z,60
2016-05-01T12:52:55.329Z,60
2016-05-01T12:53:55.472Z,60
2016-05-01T12:54:55.460Z,60
2016-05-01T12:55:55.478Z,60
2016-05-01T12:56:55.200Z,60
2016-05-01T12:57:55.358Z,60
2016-05-01T12:58:55.485Z,60
2016-05-01T12:59:55.207Z,60
2016-05-01T13:00:55.507Z,60
2016-05-01T13:01:55.510Z,60
2016-05-01T13:02:55.357Z,60
2016-05-01T13:03:55.405Z,60
2016-05-01T13:04:55.533Z,60
2016-05-01T13:05:55.802Z,60
2016-05-01T13:06:55.538Z,60
2016-05-01T13:07:55.385Z,60
2016-05-01T13:08:55.247Z,60
2016-05-01T13:09:55.562Z,60
2016-05-01T13:10:55.565Z,60
2016-05-01T13:11:55.568Z,60
2016-05-01T13:12:55.414Z,55
2016-05-01T13:13:55.432Z,55
2016-05-01T13:14:55.434Z,55
2016-05-01T13:15:55.437Z,55
2016-05-01T13:16:55.425Z,55
2016-05-01T13:17:55.600Z,55
2016-05-01T13:18:55.602Z,55
2016-05-01T13:19:55.636Z,55
2016-05-01T13:20:55.326Z,55
2016-05-01T13:21:55.625Z,55
2016-05-01T13:22:55.691Z,55
2016-05-01T13:23:55.631Z,55
2016-05-01T13:24:55.666Z,55
2016-05-01T13:25:55.339Z,55
2016-05-01T13:26:55.671Z,55
2016-05-01T13:27:55.516Z,55
2016-05-01T13:28:55.519Z,55
2016-05-01T13:29:55.382Z,55
2016-05-01T13:30:55.682Z,55
2016-05-01T13:31:55.685Z,55
2016-05-01T13:32:55.546Z,55
2016-05-01T13:33:55.549Z,55
2016-05-01T13:34:55.724Z,55
2016-05-01T13:35:55.633Z,55
2016-05-01T13:36:55.400Z,55
2016-05-01T13:37:55.701Z,55
2016-05-01T13:38:55.749Z,55
2016-05-01T13:39:55.737Z,55
2016-05-01T13:40:55.426Z,50
2016-05-01T13:41:55.758Z,55
2016-05-01T13:42:55.589Z,55
2016-05-01T13:43:55.591Z,55
2016-05-01T13:44:55.609Z,55
2016-05-01T13:45:55.612Z,55
2016-05-01T13:46:55.615Z,55
2016-05-01T13:47:55.790Z,50
2016-05-01T13:48:55.621Z,50
2016-05-01T13:49:55.779Z,50
2016-05-01T13:50:55.548Z,55
2016-05-01T13:51:55.816Z,55
2016-05-01T13:52:55.787Z,50
2016-05-01T13:53:55.650Z,50
2016-05-01T13:54:55.824Z,50
2016-05-01T13:55:55.811Z,50
2016-05-01T13:56:55.672Z,50
2016-05-01T13:57:55.816Z,50
2016-05-01T13:58:55.835Z,50
2016-05-01T13:59:55.838Z,50
2016-05-01T14:00:55.684Z,50
2016-05-01T14:01:55.843Z,50
2016-05-01T14:02:55.846Z,50
2016-05-01T14:03:55.849Z,50
2016-05-01T14:04:55.866Z,50
2016-05-01T14:05:56.104Z,50
2016-05-01T14:06:55.716Z,50
2016-05-01T14:07:55.718Z,50
2016-05-01T14:08:55.877Z,50
2016-05-01T14:09:55.895Z,50
2016-05-01T14:10:55.883Z,50
2016-05-01T14:11:55.586Z,50
2016-05-01T14:12:55.745Z,50
2016-05-01T14:13:55.747Z,50
2016-05-01T14:14:55.750Z,50
2016-05-01T14:15:55.909Z,50
2016-05-01T14:16:55.756Z,50
2016-05-01T14:17:55.774Z,50
2016-05-01T14:18:55.948Z,50
2016-05-01T14:19:55.951Z,50